Terminal Aerodrome Forecast
Issued by NWS

Home | Current Version | Previous Version | Text Only | Print | Product List | Glossary On
Versions: 1 2 3 4 5 6 7 8 9 10 11 12 13 14 15 16
000
FTUS45 KABQ 120700 AAA
TAFAEG
TAF AMD
KAEG 120700Z 1207/1306 36005KT P6SM SCT110
     FM130100 14011KT P6SM VCSH SCT090 BKN200=

USA.gov is the U.S. government's official web portal to all federal, state and local government web resources and services.